sensor_id;sensor_type;location;lat;lon;timestamp;temperature;humidity
21047;DHT22;10682;50.874;3.656;2024-02-26T00:00:43;6.80;99.90
21047;DHT22;10682;50.874;3.656;2024-02-26T00:03:10;6.80;99.90
21047;DHT22;10682;50.874;3.656;2024-02-26T00:05:37;6.80;99.90
21047;DHT22;10682;50.874;3.656;2024-02-26T00:08:06;6.80;99.90
21047;DHT22;10682;50.874;3.656;2024-02-26T00:10:33;6.80;99.90
21047;DHT22;10682;50.874;3.656;2024-02-26T00:13:00;6.80;99.90
21047;DHT22;10682;50.874;3.656;2024-02-26T00:15:27;6.80;99.90
21047;DHT22;10682;50.874;3.656;2024-02-26T00:18:25;6.80;99.90
21047;DHT22;10682;50.874;3.656;2024-02-26T00:20:52;6.80;99.90
21047;DHT22;10682;50.874;3.656;2024-02-26T00:23:20;6.70;99.90
21047;DHT22;10682;50.874;3.656;2024-02-26T00:25:47;6.70;99.90
21047;DHT22;10682;50.874;3.656;2024-02-26T00:28:15;6.70;99.90
21047;DHT22;10682;50.874;3.656;2024-02-26T00:30:42;6.70;99.90
21047;DHT22;10682;50.874;3.656;2024-02-26T00:33:09;6.70;99.90
21047;DHT22;10682;50.874;3.656;2024-02-26T00:35:37;6.70;99.90
21047;DHT22;10682;50.874;3.656;2024-02-26T00:38:04;6.70;99.90
21047;DHT22;10682;50.874;3.656;2024-02-26T00:40:31;6.70;99.90
21047;DHT22;10682;50.874;3.656;2024-02-26T00:42:58;6.60;99.90
21047;DHT22;10682;50.874;3.656;2024-02-26T00:45:25;6.60;99.90
21047;DHT22;10682;50.874;3.656;2024-02-26T00:47:53;6.60;99.90
21047;DHT22;10682;50.874;3.656;2024-02-26T00:50:22;6.60;99.90
21047;DHT22;10682;50.874;3.656;2024-02-26T00:56:03;6.60;99.90
21047;DHT22;10682;50.874;3.656;2024-02-26T00:58:31;6.60;99.90
21047;DHT22;10682;50.874;3.656;2024-02-26T01:00:58;6.60;99.90
21047;DHT22;10682;50.874;3.656;2024-02-26T01:03:25;6.60;99.90
21047;DHT22;10682;50.874;3.656;2024-02-26T01:05:52;6.60;99.90
21047;DHT22;10682;50.874;3.656;2024-02-26T01:08:24;6.60;99.90
21047;DHT22;10682;50.874;3.656;2024-02-26T01:10:51;6.50;99.90
21047;DHT22;10682;50.874;3.656;2024-02-26T01:13:18;6.60;99.90
21047;DHT22;10682;50.874;3.656;2024-02-26T01:15:45;6.50;99.90
21047;DHT22;10682;50.874;3.656;2024-02-26T01:18:12;6.50;99.90
21047;DHT22;10682;50.874;3.656;2024-02-26T01:20:40;6.50;99.90
21047;DHT22;10682;50.874;3.656;2024-02-26T01:23:07;6.60;99.90
21047;DHT22;10682;50.874;3.656;2024-02-26T01:25:34;6.60;99.90
21047;DHT22;10682;50.874;3.656;2024-02-26T01:28:01;6.60;99.90
21047;DHT22;10682;50.874;3.656;2024-02-26T01:30:29;6.50;99.90
21047;DHT22;10682;50.874;3.656;2024-02-26T01:32:57;6.50;99.90
21047;DHT22;10682;50.874;3.656;2024-02-26T01:35:24;6.50;99.90
21047;DHT22;10682;50.874;3.656;2024-02-26T01:37:51;6.50;99.90
21047;DHT22;10682;50.874;3.656;2024-02-26T01:40:18;6.50;99.90
21047;DHT22;10682;50.874;3.656;2024-02-26T01:42:46;6.50;99.90
21047;DHT22;10682;50.874;3.656;2024-02-26T01:45:16;6.50;99.90
21047;DHT22;10682;50.874;3.656;2024-02-26T01:47:53;6.50;99.90
21047;DHT22;10682;50.874;3.656;2024-02-26T01:50:22;6.50;99.90
21047;DHT22;10682;50.874;3.656;2024-02-26T01:52:52;6.50;99.90
21047;DHT22;10682;50.874;3.656;2024-02-26T01:55:20;6.50;99.90
21047;DHT22;10682;50.874;3.656;2024-02-26T01:57:51;6.50;99.90
21047;DHT22;10682;50.874;3.656;2024-02-26T02:00:20;6.50;99.90
21047;DHT22;10682;50.874;3.656;2024-02-26T02:02:49;6.50;99.90
21047;DHT22;10682;50.874;3.656;2024-02-26T02:05:17;6.50;99.90
21047;DHT22;10682;50.874;3.656;2024-02-26T02:07:44;6.50;99.90
21047;DHT22;10682;50.874;3.656;2024-02-26T02:10:13;6.40;99.90
21047;DHT22;10682;50.874;3.656;2024-02-26T02:12:42;6.40;99.90
21047;DHT22;10682;50.874;3.656;2024-02-26T02:15:10;6.50;99.90
21047;DHT22;10682;50.874;3.656;2024-02-26T02:17:37;6.40;99.90
21047;DHT22;10682;50.874;3.656;2024-02-26T02:20:08;6.50;99.90
21047;DHT22;10682;50.874;3.656;2024-02-26T02:22:58;6.40;99.90
21047;DHT22;10682;50.874;3.656;2024-02-26T02:25:28;6.40;99.90
21047;DHT22;10682;50.874;3.656;2024-02-26T02:27:56;6.40;99.90
21047;DHT22;10682;50.874;3.656;2024-02-26T02:30:25;6.40;99.90
21047;DHT22;10682;50.874;3.656;2024-02-26T02:32:57;6.40;99.90
21047;DHT22;10682;50.874;3.656;2024-02-26T02:35:28;6.40;99.90
21047;DHT22;10682;50.874;3.656;2024-02-26T02:38:10;6.40;99.90
21047;DHT22;10682;50.874;3.656;2024-02-26T02:40:37;6.40;99.90
21047;DHT22;10682;50.874;3.656;2024-02-26T02:43:05;6.40;99.90
21047;DHT22;10682;50.874;3.656;2024-02-26T02:45:32;6.40;99.90
21047;DHT22;10682;50.874;3.656;2024-02-26T02:47:59;6.30;99.90
21047;DHT22;10682;50.874;3.656;2024-02-26T02:50:26;6.30;99.90
21047;DHT22;10682;50.874;3.656;2024-02-26T02:52:55;6.30;99.90
21047;DHT22;10682;50.874;3.656;2024-02-26T02:55:22;6.30;99.90
21047;DHT22;10682;50.874;3.656;2024-02-26T02:57:49;6.30;99.90
21047;DHT22;10682;50.874;3.656;2024-02-26T03:00:17;6.30;99.90
21047;DHT22;10682;50.874;3.656;2024-02-26T03:02:44;6.30;99.90
21047;DHT22;10682;50.874;3.656;2024-02-26T03:05:13;6.30;99.90
21047;DHT22;10682;50.874;3.656;2024-02-26T03:07:40;6.30;99.90
21047;DHT22;10682;50.874;3.656;2024-02-26T03:10:08;6.30;99.90
21047;DHT22;10682;50.874;3.656;2024-02-26T03:12:35;6.30;99.90
21047;DHT22;10682;50.874;3.656;2024-02-26T03:15:02;6.30;99.90
21047;DHT22;10682;50.874;3.656;2024-02-26T03:17:30;6.30;99.90
21047;DHT22;10682;50.874;3.656;2024-02-26T03:19:57;6.30;99.90
21047;DHT22;10682;50.874;3.656;2024-02-26T03:22:24;6.30;99.90
21047;DHT22;10682;50.874;3.656;2024-02-26T03:24:51;6.30;99.90
21047;DHT22;10682;50.874;3.656;2024-02-26T03:27:18;6.40;99.90
21047;DHT22;10682;50.874;3.656;2024-02-26T03:29:45;6.40;99.90
21047;DHT22;10682;50.874;3.656;2024-02-26T03:32:12;6.40;99.90
21047;DHT22;10682;50.874;3.656;2024-02-26T03:34:40;6.30;99.90
21047;DHT22;10682;50.874;3.656;2024-02-26T03:37:07;6.30;99.90
21047;DHT22;10682;50.874;3.656;2024-02-26T03:39:37;6.30;99.90
21047;DHT22;10682;50.874;3.656;2024-02-26T03:42:04;6.30;99.90
21047;DHT22;10682;50.874;3.656;2024-02-26T03:44:31;6.40;99.90
21047;DHT22;10682;50.874;3.656;2024-02-26T03:46:58;6.30;99.90
21047;DHT22;10682;50.874;3.656;2024-02-26T03:49:25;6.30;99.90
21047;DHT22;10682;50.874;3.656;2024-02-26T03:51:53;6.30;99.90
21047;DHT22;10682;50.874;3.656;2024-02-26T03:54:20;6.30;99.90
21047;DHT22;10682;50.874;3.656;2024-02-26T03:56:47;6.30;99.90
21047;DHT22;10682;50.874;3.656;2024-02-26T03:59:14;6.30;99.90
21047;DHT22;10682;50.874;3.656;2024-02-26T04:01:50;6.30;99.90
21047;DHT22;10682;50.874;3.656;2024-02-26T04:04:18;6.30;99.90
21047;DHT22;10682;50.874;3.656;2024-02-26T04:06:46;6.20;99.90
21047;DHT22;10682;50.874;3.656;2024-02-26T04:09:14;6.20;99.90
21047;DHT22;10682;50.874;3.656;2024-02-26T04:11:41;6.20;99.90
21047;DHT22;10682;50.874;3.656;2024-02-26T04:14:12;6.20;99.90
21047;DHT22;10682;50.874;3.656;2024-02-26T04:16:39;6.20;99.90
21047;DHT22;10682;50.874;3.656;2024-02-26T04:19:06;6.20;99.90
21047;DHT22;10682;50.874;3.656;2024-02-26T04:21:35;6.20;99.90
21047;DHT22;10682;50.874;3.656;2024-02-26T04:28:12;6.20;99.90
21047;DHT22;10682;50.874;3.656;2024-02-26T04:30:41;6.20;99.90
21047;DHT22;10682;50.874;3.656;2024-02-26T04:33:08;6.20;99.90
21047;DHT22;10682;50.874;3.656;2024-02-26T04:35:35;6.20;99.90
21047;DHT22;10682;50.874;3.656;2024-02-26T04:38:04;6.20;99.90
21047;DHT22;10682;50.874;3.656;2024-02-26T04:40:31;6.20;99.90
21047;DHT22;10682;50.874;3.656;2024-02-26T04:42:58;6.20;99.90
21047;DHT22;10682;50.874;3.656;2024-02-26T04:45:25;6.20;99.90
21047;DHT22;10682;50.874;3.656;2024-02-26T04:47:52;6.20;99.90
21047;DHT22;10682;50.874;3.656;2024-02-26T04:50:20;6.20;99.90
21047;DHT22;10682;50.874;3.656;2024-02-26T04:52:47;6.20;99.90
21047;DHT22;10682;50.874;3.656;2024-02-26T04:55:14;6.20;99.90
21047;DHT22;10682;50.874;3.656;2024-02-26T04:57:41;6.20;99.90
21047;DHT22;10682;50.874;3.656;2024-02-26T05:00:09;6.20;99.90
21047;DHT22;10682;50.874;3.656;2024-02-26T05:02:36;6.20;99.90
21047;DHT22;10682;50.874;3.656;2024-02-26T05:05:06;6.20;99.90
21047;DHT22;10682;50.874;3.656;2024-02-26T05:07:33;6.20;99.90
21047;DHT22;10682;50.874;3.656;2024-02-26T05:10:01;6.20;99.90
21047;DHT22;10682;50.874;3.656;2024-02-26T05:12:28;6.20;99.90
21047;DHT22;10682;50.874;3.656;2024-02-26T05:14:55;6.20;99.90
21047;DHT22;10682;50.874;3.656;2024-02-26T05:17:22;6.20;99.90
21047;DHT22;10682;50.874;3.656;2024-02-26T05:19:52;6.20;99.90
21047;DHT22;10682;50.874;3.656;2024-02-26T05:22:19;6.20;99.90
21047;DHT22;10682;50.874;3.656;2024-02-26T05:24:47;6.20;99.90
21047;DHT22;10682;50.874;3.656;2024-02-26T05:27:14;6.20;99.90
21047;DHT22;10682;50.874;3.656;2024-02-26T05:29:41;6.20;99.90
21047;DHT22;10682;50.874;3.656;2024-02-26T05:32:08;6.20;99.90
21047;DHT22;10682;50.874;3.656;2024-02-26T05:34:35;6.20;99.90
21047;DHT22;10682;50.874;3.656;2024-02-26T05:37:02;6.30;99.90
21047;DHT22;10682;50.874;3.656;2024-02-26T05:39:30;6.30;99.90
21047;DHT22;10682;50.874;3.656;2024-02-26T05:41:57;6.30;99.90
21047;DHT22;10682;50.874;3.656;2024-02-26T05:44:27;6.30;99.90
21047;DHT22;10682;50.874;3.656;2024-02-26T05:46:54;6.30;99.90
21047;DHT22;10682;50.874;3.656;2024-02-26T05:49:22;6.30;99.90
21047;DHT22;10682;50.874;3.656;2024-02-26T05:51:50;6.30;99.90
21047;DHT22;10682;50.874;3.656;2024-02-26T05:54:17;6.30;99.90
21047;DHT22;10682;50.874;3.656;2024-02-26T05:56:44;6.30;99.90
21047;DHT22;10682;50.874;3.656;2024-02-26T05:59:11;6.30;99.90
21047;DHT22;10682;50.874;3.656;2024-02-26T06:01:38;6.30;99.90
21047;DHT22;10682;50.874;3.656;2024-02-26T06:04:05;6.30;99.90
21047;DHT22;10682;50.874;3.656;2024-02-26T06:09:38;6.30;99.90
21047;DHT22;10682;50.874;3.656;2024-02-26T06:12:07;6.40;99.90
21047;DHT22;10682;50.874;3.656;2024-02-26T06:14:34;6.30;99.90
21047;DHT22;10682;50.874;3.656;2024-02-26T06:17:01;6.30;99.90
21047;DHT22;10682;50.874;3.656;2024-02-26T06:19:28;6.30;99.90
21047;DHT22;10682;50.874;3.656;2024-02-26T06:21:55;6.30;99.90
21047;DHT22;10682;50.874;3.656;2024-02-26T06:24:30;6.30;99.90
21047;DHT22;10682;50.874;3.656;2024-02-26T06:27:14;6.30;99.90
21047;DHT22;10682;50.874;3.656;2024-02-26T06:29:41;6.30;99.90
21047;DHT22;10682;50.874;3.656;2024-02-26T06:32:08;6.30;99.90
21047;DHT22;10682;50.874;3.656;2024-02-26T06:34:36;6.30;99.90
21047;DHT22;10682;50.874;3.656;2024-02-26T06:37:05;6.20;99.90
21047;DHT22;10682;50.874;3.656;2024-02-26T06:39:32;6.30;99.90
21047;DHT22;10682;50.874;3.656;2024-02-26T06:41:59;6.30;99.90
21047;DHT22;10682;50.874;3.656;2024-02-26T06:44:28;6.30;99.90
21047;DHT22;10682;50.874;3.656;2024-02-26T06:47:01;6.30;99.90
21047;DHT22;10682;50.874;3.656;2024-02-26T06:49:29;6.20;99.90
21047;DHT22;10682;50.874;3.656;2024-02-26T06:51:56;6.30;99.90
21047;DHT22;10682;50.874;3.656;2024-02-26T06:54:23;6.30;99.90
21047;DHT22;10682;50.874;3.656;2024-02-26T06:56:51;6.30;99.90
21047;DHT22;10682;50.874;3.656;2024-02-26T06:59:18;6.30;99.90
21047;DHT22;10682;50.874;3.656;2024-02-26T07:01:46;6.20;99.90
21047;DHT22;10682;50.874;3.656;2024-02-26T07:04:13;6.30;99.90
21047;DHT22;10682;50.874;3.656;2024-02-26T07:06:40;6.20;99.90
21047;DHT22;10682;50.874;3.656;2024-02-26T07:09:09;6.20;99.90
21047;DHT22;10682;50.874;3.656;2024-02-26T07:11:39;6.20;99.90
21047;DHT22;10682;50.874;3.656;2024-02-26T07:14:09;6.20;99.90
21047;DHT22;10682;50.874;3.656;2024-02-26T07:16:37;6.20;99.90
21047;DHT22;10682;50.874;3.656;2024-02-26T07:19:04;6.20;99.90
21047;DHT22;10682;50.874;3.656;2024-02-26T07:21:31;6.20;99.90
21047;DHT22;10682;50.874;3.656;2024-02-26T07:23:59;6.20;99.90
21047;DHT22;10682;50.874;3.656;2024-02-26T07:26:26;6.20;99.90
21047;DHT22;10682;50.874;3.656;2024-02-26T07:28:53;6.20;99.90
21047;DHT22;10682;50.874;3.656;2024-02-26T07:31:20;6.20;99.90
21047;DHT22;10682;50.874;3.656;2024-02-26T07:33:47;6.20;99.90
21047;DHT22;10682;50.874;3.656;2024-02-26T07:36:15;6.20;99.90
21047;DHT22;10682;50.874;3.656;2024-02-26T07:38:42;6.20;99.90
21047;DHT22;10682;50.874;3.656;2024-02-26T07:41:11;6.20;99.90
21047;DHT22;10682;50.874;3.656;2024-02-26T07:43:39;6.20;99.90
21047;DHT22;10682;50.874;3.656;2024-02-26T07:46:07;6.20;99.90
21047;DHT22;10682;50.874;3.656;2024-02-26T07:48:35;6.20;99.90
21047;DHT22;10682;50.874;3.656;2024-02-26T07:51:05;6.20;99.90
21047;DHT22;10682;50.874;3.656;2024-02-26T07:53:43;6.20;99.90
21047;DHT22;10682;50.874;3.656;2024-02-26T07:56:11;6.20;99.90
21047;DHT22;10682;50.874;3.656;2024-02-26T07:58:44;6.10;99.90
21047;DHT22;10682;50.874;3.656;2024-02-26T08:01:13;6.10;99.90
21047;DHT22;10682;50.874;3.656;2024-02-26T08:03:41;6.10;99.90
21047;DHT22;10682;50.874;3.656;2024-02-26T08:06:08;6.10;99.90
21047;DHT22;10682;50.874;3.656;2024-02-26T08:08:36;6.10;99.90
21047;DHT22;10682;50.874;3.656;2024-02-26T08:11:03;6.10;99.90
21047;DHT22;10682;50.874;3.656;2024-02-26T08:13:30;6.10;99.90
21047;DHT22;10682;50.874;3.656;2024-02-26T08:15:58;6.10;99.90
21047;DHT22;10682;50.874;3.656;2024-02-26T08:18:25;6.10;99.90
21047;DHT22;10682;50.874;3.656;2024-02-26T08:20:53;6.10;99.90
21047;DHT22;10682;50.874;3.656;2024-02-26T08:23:20;6.10;99.90
21047;DHT22;10682;50.874;3.656;2024-02-26T08:25:47;6.10;99.90
21047;DHT22;10682;50.874;3.656;2024-02-26T08:31:14;6.10;99.90
21047;DHT22;10682;50.874;3.656;2024-02-26T08:33:41;6.10;99.90
21047;DHT22;10682;50.874;3.656;2024-02-26T08:36:09;6.10;99.90
21047;DHT22;10682;50.874;3.656;2024-02-26T08:38:36;6.10;99.90
21047;DHT22;10682;50.874;3.656;2024-02-26T08:41:04;6.10;99.90
21047;DHT22;10682;50.874;3.656;2024-02-26T08:43:32;6.10;99.90
21047;DHT22;10682;50.874;3.656;2024-02-26T08:46:00;6.10;99.90
21047;DHT22;10682;50.874;3.656;2024-02-26T08:48:27;6.10;99.90
21047;DHT22;10682;50.874;3.656;2024-02-26T08:50:54;6.10;99.90
21047;DHT22;10682;50.874;3.656;2024-02-26T08:53:21;6.10;99.90
21047;DHT22;10682;50.874;3.656;2024-02-26T08:55:57;6.10;99.90
21047;DHT22;10682;50.874;3.656;2024-02-26T08:58:24;6.10;99.90
21047;DHT22;10682;50.874;3.656;2024-02-26T09:00:51;6.20;99.90
21047;DHT22;10682;50.874;3.656;2024-02-26T09:03:19;6.20;99.90
21047;DHT22;10682;50.874;3.656;2024-02-26T09:05:46;6.10;99.90
21047;DHT22;10682;50.874;3.656;2024-02-26T09:08:13;6.10;99.90
21047;DHT22;10682;50.874;3.656;2024-02-26T09:10:40;6.20;99.90
21047;DHT22;10682;50.874;3.656;2024-02-26T09:13:08;6.10;99.90
21047;DHT22;10682;50.874;3.656;2024-02-26T09:15:35;6.20;99.90
21047;DHT22;10682;50.874;3.656;2024-02-26T09:18:02;6.20;99.90
21047;DHT22;10682;50.874;3.656;2024-02-26T09:20:30;6.20;99.90
21047;DHT22;10682;50.874;3.656;2024-02-26T09:22:57;6.20;99.90
21047;DHT22;10682;50.874;3.656;2024-02-26T09:25:24;6.20;99.90
21047;DHT22;10682;50.874;3.656;2024-02-26T09:27:52;6.20;99.90
21047;DHT22;10682;50.874;3.656;2024-02-26T09:30:19;6.20;99.90
21047;DHT22;10682;50.874;3.656;2024-02-26T09:32:47;6.20;99.90
21047;DHT22;10682;50.874;3.656;2024-02-26T09:35:17;6.20;99.90
21047;DHT22;10682;50.874;3.656;2024-02-26T09:38:01;6.20;99.90
21047;DHT22;10682;50.874;3.656;2024-02-26T09:43:44;6.30;99.90
21047;DHT22;10682;50.874;3.656;2024-02-26T09:46:13;6.30;99.90
21047;DHT22;10682;50.874;3.656;2024-02-26T09:48:42;6.20;99.90
21047;DHT22;10682;50.874;3.656;2024-02-26T09:51:11;6.20;99.90
21047;DHT22;10682;50.874;3.656;2024-02-26T09:53:39;6.30;99.90
21047;DHT22;10682;50.874;3.656;2024-02-26T09:56:11;6.30;99.90
21047;DHT22;10682;50.874;3.656;2024-02-26T09:58:42;6.20;99.90
21047;DHT22;10682;50.874;3.656;2024-02-26T10:01:17;6.30;99.90
21047;DHT22;10682;50.874;3.656;2024-02-26T10:03:49;6.20;99.90
21047;DHT22;10682;50.874;3.656;2024-02-26T10:06:21;6.20;99.90
21047;DHT22;10682;50.874;3.656;2024-02-26T10:08:48;6.20;99.90
21047;DHT22;10682;50.874;3.656;2024-02-26T10:11:16;6.30;99.90
21047;DHT22;10682;50.874;3.656;2024-02-26T10:13:43;6.30;99.90
21047;DHT22;10682;50.874;3.656;2024-02-26T10:16:11;6.30;99.90
21047;DHT22;10682;50.874;3.656;2024-02-26T10:18:52;6.20;99.90
21047;DHT22;10682;50.874;3.656;2024-02-26T10:21:26;6.20;99.90
21047;DHT22;10682;50.874;3.656;2024-02-26T10:23:53;6.20;99.90
21047;DHT22;10682;50.874;3.656;2024-02-26T10:26:21;6.20;99.90
21047;DHT22;10682;50.874;3.656;2024-02-26T10:28:49;6.20;99.90
21047;DHT22;10682;50.874;3.656;2024-02-26T10:31:21;6.10;99.90
21047;DHT22;10682;50.874;3.656;2024-02-26T10:33:55;6.10;99.90
21047;DHT22;10682;50.874;3.656;2024-02-26T10:36:22;6.10;99.90
21047;DHT22;10682;50.874;3.656;2024-02-26T10:39:02;6.10;99.90
21047;DHT22;10682;50.874;3.656;2024-02-26T10:41:32;6.10;99.90
21047;DHT22;10682;50.874;3.656;2024-02-26T10:44:00;6.10;99.90
21047;DHT22;10682;50.874;3.656;2024-02-26T10:46:27;6.10;99.90
21047;DHT22;10682;50.874;3.656;2024-02-26T10:48:56;6.10;99.90
21047;DHT22;10682;50.874;3.656;2024-02-26T10:51:27;6.10;99.90
21047;DHT22;10682;50.874;3.656;2024-02-26T10:53:59;6.20;99.90
21047;DHT22;10682;50.874;3.656;2024-02-26T10:56:34;6.10;99.90
21047;DHT22;10682;50.874;3.656;2024-02-26T10:59:07;6.20;99.90
21047;DHT22;10682;50.874;3.656;2024-02-26T11:01:39;6.20;99.90
21047;DHT22;10682;50.874;3.656;2024-02-26T11:04:09;6.10;99.90
21047;DHT22;10682;50.874;3.656;2024-02-26T11:06:37;6.10;99.90
21047;DHT22;10682;50.874;3.656;2024-02-26T11:09:06;6.20;99.90
21047;DHT22;10682;50.874;3.656;2024-02-26T11:11:35;6.20;99.90
21047;DHT22;10682;50.874;3.656;2024-02-26T11:14:03;6.10;99.90
21047;DHT22;10682;50.874;3.656;2024-02-26T11:16:31;6.20;99.90
21047;DHT22;10682;50.874;3.656;2024-02-26T11:19:02;6.10;99.90
21047;DHT22;10682;50.874;3.656;2024-02-26T11:21:30;6.10;99.90
21047;DHT22;10682;50.874;3.656;2024-02-26T11:27:28;6.20;99.90
21047;DHT22;10682;50.874;3.656;2024-02-26T11:30:26;6.10;99.90
21047;DHT22;10682;50.874;3.656;2024-02-26T11:32:57;6.10;99.90
21047;DHT22;10682;50.874;3.656;2024-02-26T11:35:25;6.10;99.90
21047;DHT22;10682;50.874;3.656;2024-02-26T11:37:57;6.20;99.90
21047;DHT22;10682;50.874;3.656;2024-02-26T11:40:25;6.20;99.90
21047;DHT22;10682;50.874;3.656;2024-02-26T11:42:53;6.20;99.90
21047;DHT22;10682;50.874;3.656;2024-02-26T11:48:16;6.20;99.90
21047;DHT22;10682;50.874;3.656;2024-02-26T11:50:51;6.20;99.90
21047;DHT22;10682;50.874;3.656;2024-02-26T11:53:32;6.20;99.90
21047;DHT22;10682;50.874;3.656;2024-02-26T11:58:44;6.20;99.90
21047;DHT22;10682;50.874;3.656;2024-02-26T12:01:40;6.30;99.90
21047;DHT22;10682;50.874;3.656;2024-02-26T12:06:55;6.20;99.90
21047;DHT22;10682;50.874;3.656;2024-02-26T12:09:34;6.30;99.90
21047;DHT22;10682;50.874;3.656;2024-02-26T12:12:05;6.30;99.90
21047;DHT22;10682;50.874;3.656;2024-02-26T12:14:50;6.30;99.90
21047;DHT22;10682;50.874;3.656;2024-02-26T12:17:23;6.30;99.90
21047;DHT22;10682;50.874;3.656;2024-02-26T12:19:52;6.30;99.90
21047;DHT22;10682;50.874;3.656;2024-02-26T12:22:20;6.40;99.90
21047;DHT22;10682;50.874;3.656;2024-02-26T12:24:47;6.40;99.90
21047;DHT22;10682;50.874;3.656;2024-02-26T12:27:14;6.40;99.90
21047;DHT22;10682;50.874;3.656;2024-02-26T12:29:42;6.40;99.90
21047;DHT22;10682;50.874;3.656;2024-02-26T12:32:10;6.40;99.90
21047;DHT22;10682;50.874;3.656;2024-02-26T12:37:55;6.40;99.90
21047;DHT22;10682;50.874;3.656;2024-02-26T12:40:23;6.40;99.90
21047;DHT22;10682;50.874;3.656;2024-02-26T12:42:50;6.40;99.90
21047;DHT22;10682;50.874;3.656;2024-02-26T12:45:19;6.40;99.90
21047;DHT22;10682;50.874;3.656;2024-02-26T12:47:47;6.40;99.90
21047;DHT22;10682;50.874;3.656;2024-02-26T12:50:17;6.30;99.90
21047;DHT22;10682;50.874;3.656;2024-02-26T12:52:46;6.30;99.90
21047;DHT22;10682;50.874;3.656;2024-02-26T12:55:16;6.30;99.90
21047;DHT22;10682;50.874;3.656;2024-02-26T12:57:46;6.40;99.90
21047;DHT22;10682;50.874;3.656;2024-02-26T13:00:17;6.40;99.90
21047;DHT22;10682;50.874;3.656;2024-02-26T13:02:46;6.40;99.90
21047;DHT22;10682;50.874;3.656;2024-02-26T13:05:14;6.40;99.90
21047;DHT22;10682;50.874;3.656;2024-02-26T13:07:43;6.40;99.90
21047;DHT22;10682;50.874;3.656;2024-02-26T13:10:48;6.50;99.90
21047;DHT22;10682;50.874;3.656;2024-02-26T13:13:18;6.50;99.90
21047;DHT22;10682;50.874;3.656;2024-02-26T13:15:46;6.50;99.90
21047;DHT22;10682;50.874;3.656;2024-02-26T13:18:14;6.50;99.90
21047;DHT22;10682;50.874;3.656;2024-02-26T13:20:42;6.50;99.90
21047;DHT22;10682;50.874;3.656;2024-02-26T13:23:13;6.50;99.90
21047;DHT22;10682;50.874;3.656;2024-02-26T13:25:40;6.40;99.90
21047;DHT22;10682;50.874;3.656;2024-02-26T13:28:16;6.40;99.90
21047;DHT22;10682;50.874;3.656;2024-02-26T13:30:51;6.40;99.90
21047;DHT22;10682;50.874;3.656;2024-02-26T13:33:19;6.40;99.90
21047;DHT22;10682;50.874;3.656;2024-02-26T13:35:47;6.40;99.90
21047;DHT22;10682;50.874;3.656;2024-02-26T13:38:15;6.30;99.90
21047;DHT22;10682;50.874;3.656;2024-02-26T13:40:42;6.30;99.90
21047;DHT22;10682;50.874;3.656;2024-02-26T13:43:09;6.20;99.90
21047;DHT22;10682;50.874;3.656;2024-02-26T13:45:38;6.10;99.90
21047;DHT22;10682;50.874;3.656;2024-02-26T13:48:08;6.20;99.90
21047;DHT22;10682;50.874;3.656;2024-02-26T13:50:40;6.20;99.90
21047;DHT22;10682;50.874;3.656;2024-02-26T13:53:10;6.20;99.90
21047;DHT22;10682;50.874;3.656;2024-02-26T13:55:38;6.30;99.90
21047;DHT22;10682;50.874;3.656;2024-02-26T13:58:06;6.20;99.90
21047;DHT22;10682;50.874;3.656;2024-02-26T14:00:33;6.20;99.90
21047;DHT22;10682;50.874;3.656;2024-02-26T14:03:02;6.20;99.90
21047;DHT22;10682;50.874;3.656;2024-02-26T14:05:30;6.20;99.90
21047;DHT22;10682;50.874;3.656;2024-02-26T14:07:58;6.20;99.90
21047;DHT22;10682;50.874;3.656;2024-02-26T14:10:25;6.20;99.90
21047;DHT22;10682;50.874;3.656;2024-02-26T14:12:53;6.20;99.90
21047;DHT22;10682;50.874;3.656;2024-02-26T14:15:20;6.30;99.90
21047;DHT22;10682;50.874;3.656;2024-02-26T14:17:47;6.30;99.90
21047;DHT22;10682;50.874;3.656;2024-02-26T14:20:21;6.30;99.90
21047;DHT22;10682;50.874;3.656;2024-02-26T14:22:50;6.30;99.90
21047;DHT22;10682;50.874;3.656;2024-02-26T14:25:20;6.30;99.90
21047;DHT22;10682;50.874;3.656;2024-02-26T14:27:48;6.30;99.90
21047;DHT22;10682;50.874;3.656;2024-02-26T14:30:16;6.30;99.90
21047;DHT22;10682;50.874;3.656;2024-02-26T14:32:43;6.30;99.90
21047;DHT22;10682;50.874;3.656;2024-02-26T14:35:11;6.40;99.90
21047;DHT22;10682;50.874;3.656;2024-02-26T14:40:53;6.40;99.90
21047;DHT22;10682;50.874;3.656;2024-02-26T14:43:22;6.50;99.90
21047;DHT22;10682;50.874;3.656;2024-02-26T14:45:49;6.50;99.90
21047;DHT22;10682;50.874;3.656;2024-02-26T14:48:16;6.50;99.90
21047;DHT22;10682;50.874;3.656;2024-02-26T14:50:44;6.50;99.90
21047;DHT22;10682;50.874;3.656;2024-02-26T14:53:12;6.50;99.90
21047;DHT22;10682;50.874;3.656;2024-02-26T14:56:04;6.50;99.90
21047;DHT22;10682;50.874;3.656;2024-02-26T14:58:31;6.40;99.90
21047;DHT22;10682;50.874;3.656;2024-02-26T15:00:59;6.50;99.90
21047;DHT22;10682;50.874;3.656;2024-02-26T15:03:26;6.40;99.90
21047;DHT22;10682;50.874;3.656;2024-02-26T15:05:53;6.50;99.90
21047;DHT22;10682;50.874;3.656;2024-02-26T15:08:20;6.40;99.90
21047;DHT22;10682;50.874;3.656;2024-02-26T15:10:49;6.40;99.90
21047;DHT22;10682;50.874;3.656;2024-02-26T15:13:16;6.40;99.90
21047;DHT22;10682;50.874;3.656;2024-02-26T15:15:45;6.40;99.90
21047;DHT22;10682;50.874;3.656;2024-02-26T15:18:12;6.40;99.90
21047;DHT22;10682;50.874;3.656;2024-02-26T15:20:43;6.40;99.90
21047;DHT22;10682;50.874;3.656;2024-02-26T15:23:11;6.40;99.90
21047;DHT22;10682;50.874;3.656;2024-02-26T15:25:39;6.30;99.90
21047;DHT22;10682;50.874;3.656;2024-02-26T15:28:08;6.30;99.90
21047;DHT22;10682;50.874;3.656;2024-02-26T15:30:38;6.30;99.90
21047;DHT22;10682;50.874;3.656;2024-02-26T15:33:05;6.30;99.90
21047;DHT22;10682;50.874;3.656;2024-02-26T15:35:32;6.30;99.90
21047;DHT22;10682;50.874;3.656;2024-02-26T15:38:00;6.30;99.90
21047;DHT22;10682;50.874;3.656;2024-02-26T15:40:27;6.30;99.90
21047;DHT22;10682;50.874;3.656;2024-02-26T15:42:55;6.30;99.90
21047;DHT22;10682;50.874;3.656;2024-02-26T15:45:22;6.30;99.90
21047;DHT22;10682;50.874;3.656;2024-02-26T15:47:51;6.30;99.90
21047;DHT22;10682;50.874;3.656;2024-02-26T15:50:19;6.30;99.90
21047;DHT22;10682;50.874;3.656;2024-02-26T15:52:49;6.30;99.90
21047;DHT22;10682;50.874;3.656;2024-02-26T15:55:17;6.30;99.90
21047;DHT22;10682;50.874;3.656;2024-02-26T15:57:47;6.30;99.90
21047;DHT22;10682;50.874;3.656;2024-02-26T16:00:15;6.30;99.90
21047;DHT22;10682;50.874;3.656;2024-02-26T16:02:42;6.30;99.90
21047;DHT22;10682;50.874;3.656;2024-02-26T16:05:10;6.30;99.90
21047;DHT22;10682;50.874;3.656;2024-02-26T16:07:47;6.30;99.90
21047;DHT22;10682;50.874;3.656;2024-02-26T16:10:18;6.30;99.90
21047;DHT22;10682;50.874;3.656;2024-02-26T16:12:55;6.30;99.90
21047;DHT22;10682;50.874;3.656;2024-02-26T16:15:23;6.30;99.90
21047;DHT22;10682;50.874;3.656;2024-02-26T16:17:51;6.30;99.90
21047;DHT22;10682;50.874;3.656;2024-02-26T16:20:22;6.40;99.90
21047;DHT22;10682;50.874;3.656;2024-02-26T16:22:57;6.30;99.90
21047;DHT22;10682;50.874;3.656;2024-02-26T16:25:31;6.30;99.90
21047;DHT22;10682;50.874;3.656;2024-02-26T16:27:59;6.30;99.90
21047;DHT22;10682;50.874;3.656;2024-02-26T16:30:26;6.40;99.90